• Join FlightAware (Why Join?)
  • Login
  • US Flag 
12:20PM EST


 

Airport Tracker/Info


-or-


 

Live Flight TrackerFlight Track Log ✈ SWA2219 ✈ 06-Jul-2013 ✈ KLAS - KBNA

Flight Track Log - Related Links

Times and Time Zones

All times are in EDT time to prevent confusion due to time zone crossing. See the SWA2219 flight status page for this flight to view local times or setup timezone preferences in your user account.

Time Position Orientation Groundspeed Altitude Reporting Facility
EDT Latitude Longitude Course Direction KTS MPH feet Rate Location/Type
09:09PM 36.0778 -115.1064 93° East 202 232 3,500  Level Los Angeles Center
09:10PM 36.0753 -115.0461 93° East 212 244 4,900 2,040 Climbing Los Angeles Center
09:11PM 36.0744 -114.9833 91° East 221 254 6,900 2,280 Climbing Los Angeles Center
09:12PM 36.0672 -114.8864 95° East 272 313 9,200 2,340 Climbing Los Angeles Center
09:13PM 36.0503 -114.7839 102° East 303 349 11,800 2,340 Climbing Los Angeles Center
09:14PM 36.0364 -114.6717 99° East 326 375 14,000 2,580 Climbing Los Angeles Center
09:15PM 36.0169 -114.5281 99° East 352 405 17,100 2,760 Climbing Los Angeles Center
09:16PM 35.9964 -114.4000 101° East 376 433 19,700 2,220 Climbing Los Angeles Center
09:17PM 35.9756 -114.2658 101° East 394 453 21,700 1,800 Climbing Los Angeles Center
09:18PM 35.9553 -114.1233 100° East 418 481 23,500 1,800 Climbing Los Angeles Center
09:19PM 35.9344 -113.9758 100° East 435 501 25,500 1,860 Climbing Los Angeles Center
09:20PM 35.9117 -113.8264 101° East 442 509 27,400 1,620 Climbing Los Angeles Center
09:21PM 35.8861 -113.6742 102° East 451 519 28,900 1,380 Climbing Los Angeles Center
09:22PM 35.8633 -113.5200 100° East 456 525 30,300 1,620 Climbing Los Angeles Center
09:23PM 35.8381 -113.3647 101° East 461 531 32,300 1,680 Climbing Los Angeles Center
09:24PM 35.8142 -113.2122 101° East 457 526 33,800 1,620 Climbing Los Angeles Center
09:25PM 35.7842 -113.0292 101° East 455 524 35,700 1,560 Climbing Los Angeles Center
09:26PM 35.7608 -112.8786 101° East 451 519 37,000 600 Climbing Los Angeles Center
09:27PM 35.7300 -112.7317 104° East 446 513 37,000  Level Los Angeles Center
09:28PM 35.6764 -112.5992 116° Southeast 436 502 37,000  Level Los Angeles Center
09:29PM 35.6172 -112.4681 119° Southeast 436 502 37,000  Level Los Angeles Center
09:30PM 35.5600 -112.3381 118° Southeast 433 498 37,000  Level Los Angeles Center
09:31PM 35.5056 -112.2064 117° Southeast 433 498 37,000  Level Los Angeles Center
09:32PM 35.4581 -112.0717 113° Southeast 432 497 37,000  Level Los Angeles Center
09:33PM 35.4092 -111.9364 114° Southeast 436 502 37,000  Level Los Angeles Center
09:34PM 35.3586 -111.7994 114° Southeast 438 504 37,000  Level Albuquerque Center
09:35PM 35.3086 -111.6631 114° Southeast 440 506 37,000  Level Albuquerque Center
09:36PM 35.2578 -111.5194 113° Southeast 441 507 37,000  Level Albuquerque Center
09:37PM 35.2167 -111.3772 109° East 442 509 37,000  Level Albuquerque Center
09:38PM 35.1786 -111.2336 108° East 443 510 37,000  Level Albuquerque Center
09:39PM 35.1808 -111.0681 89° East 451 519 37,000  Level Albuquerque Center
09:40PM 35.1919 -110.9206 85° East 453 521 37,000  Level Albuquerque Center
09:41PM 35.2000 -110.7736 86° East 454 522 37,000  Level Albuquerque Center
09:42PM 35.2131 -110.6036 85° East 452 520 37,000  Level Albuquerque Center
09:43PM 35.2228 -110.4567 85° East 453 521 37,000  Level Albuquerque Center
09:44PM 35.2347 -110.2836 85° East 455 524 37,000  Level Albuquerque Center
09:45PM 35.2428 -110.1347 86° East 458 527 37,000  Level Albuquerque Center
09:46PM 35.2522 -109.9858 86° East 460 529 37,000  Level Albuquerque Center
09:47PM 35.2622 -109.8122 86° East 459 528 37,000  Level Albuquerque Center
09:48PM 35.2703 -109.6611 86° East 463 533 37,000  Level Albuquerque Center
09:49PM 35.2797 -109.4856 86° East 464 534 37,000  Level Albuquerque Center
09:50PM 35.2883 -109.3372 86° East 461 531 37,000  Level Albuquerque Center
09:51PM 35.2958 -109.1869 86° East 462 532 37,000  Level Albuquerque Center
09:52PM 35.3058 -109.0150 86° East 458 527 37,000  Level Albuquerque Center
09:53PM 35.3131 -108.8675 87° East 456 525 37,000  Level Albuquerque Center
09:55PM 35.3219 -108.6961 86° East 455 524 37,000  Level Albuquerque Center
09:56PM 35.3283 -108.5503 87° East 451 519 37,000  Level Albuquerque Center
09:57PM 35.3364 -108.4031 86° East 453 521 37,000  Level Albuquerque Center
09:58PM 35.3431 -108.2300 87° East 456 525 37,000  Level Albuquerque Center
09:59PM 35.3497 -108.0792 87° East 461 531 37,000 180 Level Albuquerque Center
10:00PM 35.3581 -107.9003 87° East 469 540 37,400 720 Climbing Albuquerque Center
10:01PM 35.3650 -107.7481 87° East 469 540 38,500 780 Climbing Albuquerque Center
10:02PM 35.3714 -107.5972 87° East 465 535 39,000 240 Climbing Albuquerque Center
10:03PM 35.3858 -107.4192 84° East 471 542 39,000  Level Albuquerque Center
10:04PM 35.4042 -107.2661 82° East 475 547 39,000  Level Albuquerque Center
10:05PM 35.4250 -107.1008 81° East 478 550 39,000  Level Albuquerque Center
10:06PM 35.4450 -106.9383 81° East 478 550 39,000  Level Albuquerque Center
10:07PM 35.4564 -106.7767 85° East 472 543 39,000  Level Albuquerque Center
10:08PM 35.4631 -106.6131 87° East 474 545 39,000  Level Albuquerque Center
10:09PM 35.4700 -106.4514 87° East 473 544 39,000  Level Albuquerque Center
10:10PM 35.4767 -106.2922 87° East 468 539 39,000  Level Albuquerque Center
10:11PM 35.4819 -106.1344 88° East 463 533 39,000  Level Albuquerque Center
10:12PM 35.4878 -105.9789 87° East 458 527 39,000  Level Albuquerque Center
10:13PM 35.4953 -105.8083 87° East 456 525 39,000  Level Albuquerque Center
10:14PM 35.4989 -105.6525 88° East 453 521 39,000  Level Albuquerque Center
10:15PM 35.5011 -105.5000 89° East 444 511 39,000  Level Albuquerque Center
10:16PM 35.5053 -105.3422 88° East 454 522 39,000  Level Albuquerque Center
10:17PM 35.5117 -105.1864 87° East 454 522 39,000  Level Albuquerque Center
10:18PM 35.5161 -105.0289 88° East 456 525 39,000  Level Albuquerque Center
10:19PM 35.5206 -104.8697 88° East 461 531 39,000  Level Albuquerque Center
10:20PM 35.5253 -104.7111 88° East 462 532 39,000  Level Albuquerque Center
10:21PM 35.5297 -104.5525 88° East 460 529 39,000  Level Albuquerque Center
10:22PM 35.5342 -104.3947 88° East 457 526 39,000  Level Albuquerque Center
10:23PM 35.5386 -104.2328 88° East 462 532 39,000  Level Albuquerque Center
10:24PM 35.5417 -104.0725 89° East 462 532 39,000  Level Albuquerque Center
10:25PM 35.5456 -103.9125 88° East 462 532 39,000  Level Albuquerque Center
10:26PM 35.5481 -103.7564 89° East 455 524 39,000  Level Albuquerque Center
10:27PM 35.5514 -103.5994 88° East 454 522 39,000  Level Albuquerque Center
10:28PM 35.5539 -103.4442 89° East 452 520 39,000  Level Albuquerque Center
10:29PM 35.5556 -103.2889 89° East 451 519 39,000  Level Albuquerque Center
10:30PM 35.5581 -103.1314 89° East 455 524 39,000  Level Albuquerque Center
10:31PM 35.5600 -102.9742 89° East 456 525 39,000  Level Albuquerque Center
10:32PM 35.5617 -102.8161 89° East 458 527 39,000  Level Albuquerque Center
10:33PM 35.5639 -102.6511 89° East 460 529 39,000  Level Albuquerque Center
10:34PM 35.5633 -102.4944 90° East 460 529 39,000  Level Albuquerque Center
10:35PM 35.5653 -102.3353 89° East 463 533 39,000  Level Albuquerque Center
10:36PM 35.5658 -102.1736 90° East 470 541 39,000  Level Albuquerque Center
10:37PM 35.5672 -102.0131 89° East 469 540 39,000  Level Albuquerque Center
10:38PM 35.5686 -101.8519 89° East 469 540 39,000  Level Albuquerque Center
10:39PM 35.5692 -101.6928 90° East 464 534 39,000  Level Albuquerque Center
10:40PM 35.5692 -101.5319 90° East 465 535 39,000  Level Albuquerque Center
10:41PM 35.5692 -101.3744 90° East 460 529 39,000  Level Albuquerque Center
10:42PM 35.5681 -101.2167 90° East 460 529 39,000  Level Albuquerque Center
10:43PM 35.5667 -101.0614 91° East 456 525 39,000  Level Albuquerque Center
10:44PM 35.5664 -100.8767 90° East 452 520 39,000  Level Albuquerque Center
10:45PM 35.5664 -100.7231 90° East 451 519 39,000  Level Albuquerque Center
10:46PM 35.5647 -100.5897 91° East 450 518 39,000  Level Albuquerque Center
10:47PM 35.5633 -100.4342 91° East 452 520 39,000  Level Albuquerque Center
10:48PM 35.5619 -100.2808 91° East 451 519 39,000  Level Albuquerque Center
10:49PM 35.5589 -100.0936 91° East 456 525 39,000  Level Albuquerque Center
10:50PM 35.5564 -99.9386 91° East 456 525 39,000  Level Albuquerque Center
10:51PM 35.5553 -99.7842 90° East 455 524 39,000  Level Albuquerque Center
10:53PM 35.5528 -99.6303 91° East 454 522 39,000  Level Albuquerque Center
10:53PM 35.5508 -99.5389 91° East 453 521 39,000  Level Fort Worth Center
10:54PM 35.5450 -99.3831 93° East 453 521 39,000  Level Fort Worth Center
10:55PM 35.5453 -99.2300 90° East 453 521 39,000  Level Fort Worth Center
10:56PM 35.5389 -99.0767 93° East 453 521 39,000  Level Fort Worth Center
10:57PM 35.5389 -98.9211 90° East 453 521 39,000  Level Fort Worth Center
10:58PM 35.5344 -98.7656 92° East 453 521 39,000  Level Fort Worth Center
10:59PM 35.5297 -98.6097 92° East 458 527 39,000  Level Fort Worth Center
11:00PM 35.5289 -98.4619 90° East 452 520 39,000  Level Fort Worth Center
11:01PM 35.5261 -98.3089 91° East 449 517 39,000  Level Fort Worth Center
11:02PM 35.5228 -98.1583 92° East 444 511 39,000  Level Fort Worth Center
11:03PM 35.5175 -98.0053 92° East 444 511 39,000  Level Fort Worth Center
11:04PM 35.5117 -97.8572 93° East 444 511 39,000  Level Fort Worth Center
11:05PM 35.5081 -97.7042 92° East 444 511 39,000  Level Fort Worth Center
11:06PM 35.5042 -97.5539 92° East 444 511 39,000  Level Fort Worth Center
11:07PM 35.5000 -97.4161 92° East 444 511 39,000  Level Fort Worth Center
11:08PM 35.4936 -97.2606 93° East 449 517 39,000  Level Fort Worth Center
11:09PM 35.4872 -97.1078 93° East 460 529 39,000  Level Fort Worth Center
11:10PM 35.4867 -96.9572 90° East 449 517 39,000  Level Fort Worth Center
11:11PM 35.5028 -96.8119 82° East 436 502 39,000  Level Fort Worth Center
11:12PM 35.5167 -96.6639 83° East 436 502 39,000  Level Fort Worth Center
11:13PM 35.5322 -96.5158 83° East 436 502 39,000  Level Fort Worth Center
11:14PM 35.5478 -96.3675 83° East 436 502 39,000  Level Fort Worth Center
11:15PM 35.5611 -96.2194 84° East 436 502 39,000  Level Fort Worth Center
11:16PM 35.5764 -96.0686 83° East 436 502 39,000  Level Fort Worth Center
11:17PM 35.5914 -95.9203 83° East 441 507 39,000  Level Fort Worth Center
11:18PM 35.6061 -95.7744 83° East 441 507 39,000  Level Fort Worth Center
11:19PM 35.6208 -95.6236 83° East 441 507 39,000  Level Fort Worth Center
11:20PM 35.6353 -95.4728 83° East 446 513 39,000  Level Fort Worth Center
11:22PM 35.6631 -95.1786 83° East 437 503 39,000  Level Memphis Center
11:23PM 35.6750 -95.0286 84° East 437 503 39,000  Level Memphis Center
11:24PM 35.6889 -94.8786 83° East 443 510 39,000  Level Memphis Center
11:25PM 35.7006 -94.7283 84° East 443 510 39,000  Level Memphis Center
11:26PM 35.7142 -94.5731 84° East 443 510 39,000  Level Memphis Center
11:27PM 35.7275 -94.4231 84° East 443 510 39,000  Level Memphis Center
11:28PM 35.7406 -94.2728 84° East 443 510 39,000  Level Memphis Center
11:29PM 35.7517 -94.1172 85° East 443 510 39,000  Level Memphis Center
11:30PM 35.7644 -93.9694 84° East 443 510 39,000  Level Memphis Center
11:31PM 35.7772 -93.8139 84° East 443 510 39,000  Level Memphis Center
11:32PM 35.7897 -93.6608 84° East 443 510 39,000  Level Memphis Center
11:33PM 35.8000 -93.5078 85° East 443 510 39,000  Level Memphis Center
11:34PM 35.8139 -93.3572 83° East 443 510 39,000  Level Memphis Center
11:35PM 35.8261 -93.1989 85° East 443 510 39,000  Level Memphis Center
11:36PM 35.8378 -93.0431 85° East 448 516 39,000  Level Memphis Center
11:37PM 35.8494 -92.8822 85° East 458 527 39,000  Level Memphis Center
11:38PM 35.8589 -92.7261 86° East 463 533 39,000  Level Memphis Center
11:39PM 35.8681 -92.5678 86° East 458 527 39,000  Level Memphis Center
11:40PM 35.8792 -92.4092 85° East 458 527 39,000  Level Memphis Center
11:41PM 35.8900 -92.2506 85° East 458 527 39,000  Level Memphis Center
11:42PM 35.8983 -92.1097 86° East 458 527 39,000  Level Memphis Center
11:43PM 35.9086 -91.9511 85° East 458 527 39,000  Level Memphis Center
11:44PM 35.9189 -91.7925 85° East 458 527 39,000  Level Memphis Center
11:45PM 35.9289 -91.6361 85° East 458 527 39,000  Level Memphis Center
11:46PM 35.9389 -91.4747 86° East 458 527 39,000  Level Memphis Center
11:47PM 35.9403 -91.3006 89° East 458 527 39,000  Level Memphis Center
11:48PM 35.9144 -91.1414 101° East 464 534 39,000  Level Memphis Center
11:49PM 35.8756 -90.9847 107° East 469 540 39,000  Level Memphis Center
11:50PM 35.8408 -90.8281 105° East 474 545 39,000  Level Memphis Center
11:51PM 35.8039 -90.6692 106° East 479 551 39,000  Level Memphis Center
11:52PM 35.7664 -90.5131 106° East 479 551 39,000  Level Memphis Center
11:53PM 35.7311 -90.3519 105° East 479 551 39,000  Level Memphis Center
11:54PM 35.6956 -90.1933 105° East 479 551 39,000  Level Memphis Center
11:55PM 35.6744 -90.0403 100° East 484 557 39,000  Level Memphis Center
11:56PM 35.6406 -89.8614 103° East 490 564 39,000  Level Memphis Center
11:57PM 35.6083 -89.6983 104° East 490 564 39,000  Level Memphis Center
11:58PM 35.5783 -89.5325 102° East 490 564 39,000  Level Memphis Center
11:59PM 35.5644 -89.3667 96° East 490 564 39,000  Level Memphis Center
12:00AM 35.5650 -89.1983 90° East 479 551 39,000 -1,200 Level Memphis Center
12:01AM 35.5675 -89.0325 89° East 479 551 36,700 -2,220 Descending Memphis Center
12:02AM 35.5681 -88.8792 90° East 486 559 34,600 -2,640 Descending Memphis Center
12:03AM 35.5656 -88.7006 91° East 486 559 31,500 -2,820 Descending Memphis Center
12:04AM 35.5822 -88.5344 83° East 481 554 29,000 -2,460 Descending Memphis Center
12:05AM 35.6153 -88.3831 75° East 456 525 26,600 -2,340 Descending Memphis Center
12:06AM 35.6589 -88.2389 70° East 451 519 24,400 -1,740 Descending Memphis Center
12:07AM 35.7044 -88.1022 68° East 445 512 23,200 -1,980 Descending Memphis Center
12:08AM 35.7456 -87.9603 70° East 430 495 20,500 -2,400 Descending Memphis Center
12:09AM 35.7867 -87.8286 69° East 430 495 18,500 -2,100 Descending Memphis Center
12:10AM 35.8236 -87.6994 71° East 409 471 16,400 -2,100 Descending Memphis Center
12:11AM 35.8625 -87.5728 69° East 393 452 14,300 -2,100 Descending Memphis Center
12:12AM 35.8972 -87.4511 71° East 381 438 12,300 -1,680 Descending Memphis Center
12:13AM 35.9133 -87.3431 80° East 363 418 11,000 -1,140 Descending Memphis Center
12:14AM 35.9169 -87.2350 88° East 334 384 10,100 -1,200 Descending Memphis Center
12:15AM 35.9225 -87.1297 86° East 310 357 8,600 -1,620 Descending Memphis Center
12:16AM 35.9264 -87.0322 87° East 294 338 6,900 -1,680 Descending Memphis Center
12:17AM 35.9300 -86.9347 87° East 289 333 5,300 -1,560 Descending Memphis Center
12:18AM 35.9336 -86.8397 87° East 289 333 3,800 -1,200 Descending Memphis Center
12:19AM 35.9456 -86.7547 80° East 268 308 2,900 -660 Descending Memphis Center
12:20AM 36.0075 -86.7261 20° North 209 241 2,500 -660 Descending Memphis Center
12:21AM 36.0528 -86.7089 17° North 184 212 1,600 -900 Descending Memphis Center
12:22AM 36.0919 -86.6917 20° North 153 176 800 -480 Descending Memphis Center
12:23AM 36.1392 -86.6742 17° North 153 176 700 -120 Descending Memphis Center
12:27AM 36.1245 -86.6782 180° South  Level Estimated
12:34AM 36.1245 -86.6782 180° South  Level Estimated
12:35AM 36.1245 -86.6782 180° South  Level Estimated
12:36AM 36.1245 -86.6782 180° South  Level Estimated
12:37AM 36.1245 -86.6782 180° South  Level Estimated
12:38AM 36.1245 -86.6782 180° South  Level Estimated
12:39AM 36.1245 -86.6782 180° South  Level Estimated